Bayamo, Cuba
Current Conditions -  °F | °C
As of 1:52 PM on Wednesday 26 Nov 2014 (Local Time) from MUHG Reporting Station
Broken Clouds Broken Clouds  
Wind Chill: 88°   Ceiling: 2000
Heat Index: 93°   Visibility: 6mi
Dew Point: 70°   Wind: 6mph
Humidity: 55%   Direction: NA
Pressure: 29.97"   Gusts: NA
Location:  20.38°N, 76.65°W
Report Text: MUHG 261752Z VRB05KT 9000 BKN020TCU 31/21 Q1015
Loading
Personal Weather Stations






























Interactive Weather Map New forecast layout! Learn more

10-Day Weather Forecast

Advertisements
Track Severe Weather on mobile